Time;durP1;ratioP1;P1;durP2;ratioP2;P2;SDS_P1;SDS_P2;PMS_P1;PMS_P2;Temp;Humidity;BMP_temperature;BMP_pressure;BME280_temperature;BME280_humidity;BME280_pressure;Samples;Min_cycle;Max_cycle;Signal;HPM_P1;HPM_P2
2023/02/06 00:00:39;;;;;;;4.88;1.58;;;;;;;;;;5029717;28;20044;-40
2023/02/06 00:03:05;;;;;;;2.42;1.65;;;;;;;;;;5030953;28;20079;-39
2023/02/06 00:05:30;;;;;;;1.65;1.25;;;;;;;;;;5031106;28;20112;-39
2023/02/06 00:07:56;;;;;;;1.42;1.27;;;;;;;;;;5030926;28;20026;-40
2023/02/06 00:10:21;;;;;;;2.92;1.65;;;;;;;;;;5031160;28;20017;-39
2023/02/06 00:12:47;;;;;;;2.65;1.90;;;;;;;;;;5029660;28;20448;-39
2023/02/06 00:15:12;;;;;;;2.97;1.35;;;;;;;;;;5046544;28;20038;-39
2023/02/06 00:17:37;;;;;;;4.70;2.28;;;;;;;;;;5031028;28;20036;-39
2023/02/06 00:20:04;;;;;;;2.45;1.58;;;;;;;;;;5030871;28;20621;-39
2023/02/06 00:22:29;;;;;;;1.95;1.27;;;;;;;;;;5030820;28;20029;-39
2023/02/06 00:24:55;;;;;;;3.38;2.17;;;;;;;;;;5031718;28;20025;-39
2023/02/06 00:27:20;;;;;;;2.05;1.48;;;;;;;;;;5034751;28;20035;-39
2023/02/06 00:29:45;;;;;;;1.95;1.23;;;;;;;;;;5034782;28;20040;-39
2023/02/06 00:32:12;;;;;;;2.90;1.15;;;;;;;;;;5034653;28;20043;-39
2023/02/06 00:34:39;;;;;;;1.42;1.10;;;;;;;;;;5033201;28;20460;-39
2023/02/06 00:37:05;;;;;;;5.00;1.20;;;;;;;;;;5034268;28;20125;-40
2023/02/06 00:39:30;;;;;;;3.13;1.38;;;;;;;;;;5034268;28;20109;-39
2023/02/06 00:41:55;;;;;;;1.92;1.50;;;;;;;;;;5033056;28;20388;-38
2023/02/06 00:44:22;;;;;;;3.20;1.70;;;;;;;;;;5066187;28;20032;-38
2023/02/06 00:46:48;;;;;;;1.40;1.30;;;;;;;;;;5066268;28;20037;-39
2023/02/06 00:49:13;;;;;;;4.18;1.77;;;;;;;;;;5066080;28;20021;-39
2023/02/06 00:51:38;;;;;;;7.30;1.88;;;;;;;;;;5032830;28;20033;-39
2023/02/06 00:54:07;;;;;;;2.95;1.55;;;;;;;;;;5032749;28;20074;-39
2023/02/06 00:56:33;;;;;;;2.25;1.20;;;;;;;;;;5034296;28;20060;-38
2023/02/06 00:58:59;;;;;;;2.65;1.67;;;;;;;;;;5033870;28;20463;-39
2023/02/06 01:01:25;;;;;;;2.22;2.00;;;;;;;;;;5049139;28;20036;-39
2023/02/06 01:03:50;;;;;;;4.07;1.27;;;;;;;;;;5034022;28;20021;-39
2023/02/06 01:06:16;;;;;;;2.30;1.20;;;;;;;;;;5034043;28;20038;-39
2023/02/06 01:08:41;;;;;;;2.38;1.42;;;;;;;;;;5032629;28;20023;-39
2023/02/06 01:11:18;;;;;;;5.28;2.00;;;;;;;;;;5033623;28;20075;-39
2023/02/06 01:13:44;;;;;;;2.65;1.58;;;;;;;;;;5033971;28;20045;-39
2023/02/06 01:16:10;;;;;;;2.47;1.20;;;;;;;;;;5033653;28;20018;-39
2023/02/06 01:18:36;;;;;;;3.05;1.38;;;;;;;;;;5033494;28;20045;-39
2023/02/06 01:21:05;;;;;;;1.77;1.17;;;;;;;;;;5033545;28;20033;-39
2023/02/06 01:23:31;;;;;;;2.17;1.73;;;;;;;;;;5033535;28;20116;-39
2023/02/06 01:25:56;;;;;;;1.80;1.20;;;;;;;;;;5032145;28;20100;-39
2023/02/06 01:28:21;;;;;;;3.90;1.90;;;;;;;;;;5033459;28;20030;-39
2023/02/06 01:30:47;;;;;;;3.72;2.03;;;;;;;;;;5033429;28;20064;-39
2023/02/06 01:33:12;;;;;;;3.00;1.25;;;;;;;;;;5031999;28;20057;-39
2023/02/06 01:35:37;;;;;;;2.95;1.33;;;;;;;;;;5033423;28;20468;-39
2023/02/06 01:38:03;;;;;;;2.80;1.33;;;;;;;;;;5031217;28;20470;-39
2023/02/06 01:40:28;;;;;;;4.65;1.15;;;;;;;;;;5033173;28;20026;-39
2023/02/06 01:42:56;;;;;;;2.40;1.45;;;;;;;;;;5048579;28;20037;-39
2023/02/06 01:45:24;;;;;;;2.67;1.58;;;;;;;;;;5031809;28;20064;-39
2023/02/06 01:47:51;;;;;;;3.70;1.73;;;;;;;;;;5048437;28;20037;-38
2023/02/06 01:50:18;;;;;;;1.23;0.85;;;;;;;;;;5032938;28;20468;-39
2023/02/06 01:52:43;;;;;;;1.98;1.35;;;;;;;;;;5033070;28;20041;-39
2023/02/06 01:55:09;;;;;;;2.67;1.23;;;;;;;;;;5064760;28;20039;-39
2023/02/06 01:57:34;;;;;;;2.20;1.40;;;;;;;;;;5031686;28;20037;-39
2023/02/06 02:00:03;;;;;;;2.33;1.77;;;;;;;;;;5031507;28;20215;-39
2023/02/06 02:02:38;;;;;;;1.75;1.50;;;;;;;;;;5032911;28;20033;-39
2023/02/06 02:05:06;;;;;;;2.20;1.58;;;;;;;;;;5032752;28;20146;-39
2023/02/06 02:07:33;;;;;;;3.03;2.17;;;;;;;;;;5033023;28;20367;-39
2023/02/06 02:09:59;;;;;;;1.15;1.13;;;;;;;;;;5014943;28;20065;-39
2023/02/06 02:12:26;;;;;;;1.13;1.08;;;;;;;;;;5032819;28;20596;-38
2023/02/06 02:14:52;;;;;;;1.33;1.23;;;;;;;;;;5047894;28;20065;-39
2023/02/06 02:17:30;;;;;;;2.20;1.30;;;;;;;;;;5064445;28;20014;-39
2023/02/06 02:19:55;;;;;;;1.75;1.30;;;;;;;;;;5031174;28;20048;-39
2023/02/06 02:22:20;;;;;;;4.75;1.35;;;;;;;;;;5032268;28;20029;-39
2023/02/06 02:25:08;;;;;;;3.67;1.65;;;;;;;;;;5032392;28;20048;-38
2023/02/06 02:27:33;;;;;;;1.38;1.20;;;;;;;;;;5032390;28;20403;-39
2023/02/06 02:30:02;;;;;;;1.85;1.48;;;;;;;;;;5031053;28;20034;-39
2023/02/06 02:32:46;;;;;;;2.92;1.80;;;;;;;;;;5032462;28;20108;-39
2023/02/06 02:35:23;;;;;;;2.58;1.70;;;;;;;;;;5064184;28;20496;-39
2023/02/06 02:37:54;;;;;;;2.78;1.33;;;;;;;;;;5030840;28;20191;-39
2023/02/06 02:40:29;;;;;;;4.88;1.23;;;;;;;;;;5032055;28;20037;-38
2023/02/06 02:43:03;;;;;;;1.77;1.48;;;;;;;;;;5031958;28;20510;-39
2023/02/06 02:45:38;;;;;;;3.35;1.90;;;;;;;;;;5031924;28;20535;-39
2023/02/06 02:48:07;;;;;;;7.82;1.85;;;;;;;;;;5047327;28;20041;-39
2023/02/06 02:50:33;;;;;;;3.38;1.42;;;;;;;;;;5064000;28;20021;-39
2023/02/06 02:52:59;;;;;;;4.78;1.45;;;;;;;;;;5031932;28;20021;-39
2023/02/06 02:55:25;;;;;;;2.53;1.77;;;;;;;;;;5030487;28;20422;-39
2023/02/06 02:57:59;;;;;;;10.43;2.00;;;;;;;;;;5030533;28;20029;-39
2023/02/06 03:00:25;;;;;;;5.93;2.53;;;;;;;;;;5063603;28;20033;-40
2023/02/06 03:02:51;;;;;;;1.80;1.15;;;;;;;;;;5031841;28;20009;-39
2023/02/06 03:05:19;;;;;;;1.38;1.27;;;;;;;;;;5031870;28;20426;-39
2023/02/06 03:07:46;;;;;;;2.75;1.65;;;;;;;;;;5030474;28;20029;-39
2023/02/06 03:10:12;;;;;;;4.35;1.63;;;;;;;;;;5046860;28;20480;-40
2023/02/06 03:12:57;;;;;;;1.90;1.33;;;;;;;;;;5030208;28;20116;-39
2023/02/06 03:15:29;;;;;;;2.17;1.75;;;;;;;;;;5031562;28;20068;-38
2023/02/06 03:17:56;;;;;;;;;;;;;;;;;;5063886;28;20056;-39
2023/02/06 03:20:22;;;;;;;4.28;2.45;;;;;;;;;;5031348;28;20260;-39
2023/02/06 03:22:49;;;;;;;1.33;0.95;;;;;;;;;;5063353;28;20522;-39
2023/02/06 03:25:17;;;;;;;2.42;1.13;;;;;;;;;;5031650;28;20033;-38
2023/02/06 03:27:44;;;;;;;1.45;1.35;;;;;;;;;;5031611;28;20025;-39
2023/02/06 03:30:10;;;;;;;1.60;1.23;;;;;;;;;;5031394;28;20026;-39
2023/02/06 03:32:40;;;;;;;3.35;1.25;;;;;;;;;;5031542;28;20091;-39
2023/02/06 03:35:09;;;;;;;3.72;1.58;;;;;;;;;;5031262;28;20492;-38
2023/02/06 03:37:35;;;;;;;4.13;1.27;;;;;;;;;;5031293;28;20091;-39
2023/02/06 03:40:01;;;;;;;3.20;2.10;;;;;;;;;;5031272;28;20025;-39
2023/02/06 03:42:28;;;;;;;1.27;1.10;;;;;;;;;;5031123;28;20037;-39
2023/02/06 03:44:56;;;;;;;2.88;1.48;;;;;;;;;;5031288;28;20055;-39
2023/02/06 03:47:23;;;;;;;2.20;1.88;;;;;;;;;;5031431;28;20025;-39
2023/02/06 03:49:49;;;;;;;4.60;1.60;;;;;;;;;;5031489;28;20116;-38
2023/02/06 03:52:17;;;;;;;3.88;1.30;;;;;;;;;;5031319;28;20040;-39
2023/02/06 03:54:46;;;;;;;7.00;2.55;;;;;;;;;;5031154;28;20021;-38
2023/02/06 03:57:14;;;;;;;3.45;1.00;;;;;;;;;;5031364;28;20052;-39
2023/02/06 03:59:39;;;;;;;1.55;1.20;;;;;;;;;;5031582;28;20394;-39
2023/02/06 04:02:05;;;;;;;3.85;2.08;;;;;;;;;;5034992;28;20034;-38
2023/02/06 04:04:33;;;;;;;11.50;1.70;;;;;;;;;;5035007;28;20025;-39
2023/02/06 04:07:01;;;;;;;3.10;2.17;;;;;;;;;;5034055;28;20029;-39
2023/02/06 04:09:26;;;;;;;3.33;1.77;;;;;;;;;;5034884;28;20098;-39
2023/02/06 04:11:51;;;;;;;1.70;1.27;;;;;;;;;;5034911;28;20480;-38
2023/02/06 04:14:17;;;;;;;6.57;2.08;;;;;;;;;;5035066;28;20525;-39
2023/02/06 04:16:43;;;;;;;4.50;2.03;;;;;;;;;;5035055;28;20464;-39
2023/02/06 04:19:08;;;;;;;7.13;2.20;;;;;;;;;;5034551;28;20057;-39
2023/02/06 04:21:33;;;;;;;1.92;1.73;;;;;;;;;;5034687;28;20052;-39
2023/02/06 04:23:59;;;;;;;3.60;1.70;;;;;;;;;;5034985;28;20029;-38
2023/02/06 04:26:24;;;;;;;4.20;1.52;;;;;;;;;;5034875;28;20025;-39
2023/02/06 04:28:49;;;;;;;1.55;1.40;;;;;;;;;;5034668;28;20480;-39
2023/02/06 04:31:15;;;;;;;4.70;1.70;;;;;;;;;;5034667;28;20139;-39
2023/02/06 04:33:40;;;;;;;2.65;1.27;;;;;;;;;;5034577;28;20013;-39
2023/02/06 04:36:06;;;;;;;4.18;1.92;;;;;;;;;;5034503;28;20472;-39
2023/02/06 04:38:31;;;;;;;1.90;1.63;;;;;;;;;;5034464;28;20022;-38
2023/02/06 04:41:00;;;;;;;2.50;1.35;;;;;;;;;;5034568;28;20049;-39
2023/02/06 04:43:26;;;;;;;3.38;1.38;;;;;;;;;;5034561;28;20029;-39
2023/02/06 04:45:51;;;;;;;3.70;1.95;;;;;;;;;;5034556;28;20037;-40
2023/02/06 04:48:16;;;;;;;2.05;1.25;;;;;;;;;;5034468;28;20056;-39
2023/02/06 04:50:42;;;;;;;3.25;1.33;;;;;;;;;;5034150;28;20045;-39
2023/02/06 04:53:07;;;;;;;3.45;1.60;;;;;;;;;;5034272;28;20021;-38
2023/02/06 04:55:33;;;;;;;2.40;1.48;;;;;;;;;;5034198;28;20038;-38
2023/02/06 04:57:59;;;;;;;1.95;1.58;;;;;;;;;;5034046;28;20029;-39
2023/02/06 05:00:24;;;;;;;6.05;1.33;;;;;;;;;;5033863;28;20049;-38
2023/02/06 05:02:50;;;;;;;2.83;1.45;;;;;;;;;;5034004;28;20017;-38
2023/02/06 05:05:15;;;;;;;2.22;1.88;;;;;;;;;;5033868;28;20037;-39
2023/02/06 05:07:40;;;;;;;3.20;1.35;;;;;;;;;;5034092;28;20035;-38
2023/02/06 05:10:08;;;;;;;2.45;1.55;;;;;;;;;;5033873;28;20029;-40
2023/02/06 05:12:33;;;;;;;1.95;1.45;;;;;;;;;;5032864;28;20022;-38
2023/02/06 05:14:58;;;;;;;2.97;1.63;;;;;;;;;;5034051;28;20033;-39
2023/02/06 05:17:24;;;;;;;3.35;1.83;;;;;;;;;;5033658;28;20018;-38
2023/02/06 05:19:49;;;;;;;3.35;1.52;;;;;;;;;;4994223;28;20081;-39
2023/02/06 05:22:14;;;;;;;1.40;1.30;;;;;;;;;;4994124;28;20034;-39
2023/02/06 05:24:40;;;;;;;5.50;2.30;;;;;;;;;;4994279;28;20624;-38
2023/02/06 05:27:05;;;;;;;3.08;1.95;;;;;;;;;;4994171;28;20088;-38
2023/02/06 05:29:30;;;;;;;2.47;1.60;;;;;;;;;;4994054;28;20034;-38
2023/02/06 05:31:56;;;;;;;1.20;1.20;;;;;;;;;;4994108;28;20129;-39
2023/02/06 05:34:21;;;;;;;1.70;1.48;;;;;;;;;;4994015;28;20062;-38
2023/02/06 05:36:46;;;;;;;1.60;1.45;;;;;;;;;;4993995;28;20084;-38
2023/02/06 05:39:12;;;;;;;1.40;1.30;;;;;;;;;;4993834;28;20116;-39
2023/02/06 05:41:37;;;;;;;1.48;1.38;;;;;;;;;;4993879;28;20065;-38
2023/02/06 05:44:03;;;;;;;3.00;1.58;;;;;;;;;;4993910;28;20031;-38
2023/02/06 05:46:28;;;;;;;1.75;1.60;;;;;;;;;;4993849;28;20033;-43
2023/02/06 05:48:53;;;;;;;2.65;2.17;;;;;;;;;;4993823;28;20037;-39
2023/02/06 05:51:19;;;;;;;3.42;2.08;;;;;;;;;;4993942;28;20022;-38
2023/02/06 05:53:44;;;;;;;6.32;2.10;;;;;;;;;;4994034;28;20519;-38
2023/02/06 05:56:09;;;;;;;1.83;1.70;;;;;;;;;;4992269;28;20021;-38
2023/02/06 05:58:35;;;;;;;3.92;1.20;;;;;;;;;;4994155;28;20026;-38
2023/02/06 06:01:00;;;;;;;3.40;1.50;;;;;;;;;;4993724;28;20092;-38
2023/02/06 06:03:26;;;;;;;1.58;1.33;;;;;;;;;;4993672;28;20026;-38
2023/02/06 06:05:52;;;;;;;3.90;2.00;;;;;;;;;;4993516;28;20026;-38
2023/02/06 06:08:17;;;;;;;4.97;2.00;;;;;;;;;;4993296;28;20400;-38
2023/02/06 06:10:43;;;;;;;3.58;1.95;;;;;;;;;;4993322;28;20030;-39
2023/02/06 06:13:08;;;;;;;2.75;2.08;;;;;;;;;;4993521;28;20041;-38
2023/02/06 06:15:34;;;;;;;4.95;1.67;;;;;;;;;;4993302;28;20025;-38
2023/02/06 06:17:59;;;;;;;2.60;1.65;;;;;;;;;;5002679;28;20081;-38
2023/02/06 06:20:24;;;;;;;4.45;2.40;;;;;;;;;;5032413;28;20056;-38
2023/02/06 06:22:50;;;;;;;4.93;2.35;;;;;;;;;;5032222;28;20120;-38
2023/02/06 06:25:16;;;;;;;4.53;2.72;;;;;;;;;;5030990;28;20061;-38
2023/02/06 06:27:41;;;;;;;3.08;1.75;;;;;;;;;;5032452;28;20060;-39
2023/02/06 06:30:07;;;;;;;2.17;1.70;;;;;;;;;;5032351;28;20467;-38
2023/02/06 06:32:33;;;;;;;3.30;2.45;;;;;;;;;;5032049;28;20459;-38
2023/02/06 06:34:58;;;;;;;3.65;2.20;;;;;;;;;;5032225;28;20104;-38
2023/02/06 06:37:24;;;;;;;3.25;1.80;;;;;;;;;;5032199;28;20079;-39
2023/02/06 06:39:49;;;;;;;5.82;1.98;;;;;;;;;;5032383;28;20037;-39
2023/02/06 06:42:14;;;;;;;2.10;1.70;;;;;;;;;;5032021;28;20392;-39
2023/02/06 06:44:40;;;;;;;2.80;2.05;;;;;;;;;;5032346;28;20045;-38
2023/02/06 06:47:05;;;;;;;3.85;2.00;;;;;;;;;;5032041;28;20029;-38
2023/02/06 06:49:32;;;;;;;5.38;2.47;;;;;;;;;;5032002;28;20112;-38
2023/02/06 06:51:57;;;;;;;9.52;3.72;;;;;;;;;;5031939;28;20036;-38
2023/02/06 06:54:22;;;;;;;4.88;2.38;;;;;;;;;;5032062;28;20246;-38
2023/02/06 06:56:48;;;;;;;5.15;2.28;;;;;;;;;;5032119;28;20510;-38
2023/02/06 06:59:13;;;;;;;2.33;1.60;;;;;;;;;;5031643;28;20539;-38
2023/02/06 07:01:38;;;;;;;2.90;2.33;;;;;;;;;;5032002;28;20034;-38
2023/02/06 07:04:04;;;;;;;4.10;2.03;;;;;;;;;;5031765;28;20052;-39
2023/02/06 07:06:29;;;;;;;4.00;2.38;;;;;;;;;;5031672;28;20055;-39
2023/02/06 07:08:55;;;;;;;5.72;3.22;;;;;;;;;;5031959;28;20022;-39
2023/02/06 07:11:20;;;;;;;3.97;1.48;;;;;;;;;;5031594;28;20029;-39
2023/02/06 07:13:46;;;;;;;9.07;2.58;;;;;;;;;;5030261;28;20491;-39
2023/02/06 07:16:11;;;;;;;4.53;1.88;;;;;;;;;;5031808;28;20022;-39
2023/02/06 07:18:41;;;;;;;3.55;1.85;;;;;;;;;;5031505;28;20574;-39
2023/02/06 07:21:07;;;;;;;4.40;2.58;;;;;;;;;;5031444;28;20041;-38
2023/02/06 07:23:34;;;;;;;3.40;1.83;;;;;;;;;;5031714;28;20026;-39
2023/02/06 07:26:01;;;;;;;1.67;1.48;;;;;;;;;;5063526;28;20041;-38
2023/02/06 07:28:30;;;;;;;4.03;2.42;;;;;;;;;;5031544;28;20032;-38
2023/02/06 07:30:59;;;;;;;7.03;2.58;;;;;;;;;;5031339;28;20033;-40
2023/02/06 07:33:24;;;;;;;2.83;1.70;;;;;;;;;;5031309;28;20464;-39
2023/02/06 07:35:50;;;;;;;3.90;2.50;;;;;;;;;;5030678;28;20033;-38
2023/02/06 07:38:15;;;;;;;3.45;2.42;;;;;;;;;;5031288;28;20348;-39
2023/02/06 07:40:41;;;;;;;2.25;1.52;;;;;;;;;;5031280;28;20068;-39
2023/02/06 07:43:06;;;;;;;5.45;3.33;;;;;;;;;;5031242;28;20026;-38
2023/02/06 07:45:33;;;;;;;5.07;2.28;;;;;;;;;;5046544;28;20098;-39
2023/02/06 07:47:59;;;;;;;5.78;2.65;;;;;;;;;;5031648;28;20400;-39
2023/02/06 07:50:24;;;;;;;5.10;2.08;;;;;;;;;;5029934;28;20037;-39
2023/02/06 07:52:50;;;;;;;3.63;2.22;;;;;;;;;;5031201;28;20391;-39
2023/02/06 07:55:15;;;;;;;3.90;2.33;;;;;;;;;;5031139;28;20117;-38
2023/02/06 07:57:41;;;;;;;2.28;1.80;;;;;;;;;;5031155;28;20053;-40
2023/02/06 08:00:07;;;;;;;4.43;2.88;;;;;;;;;;5031377;28;20510;-38
2023/02/06 08:02:37;;;;;;;6.18;2.58;;;;;;;;;;5031166;28;20467;-38
2023/02/06 08:05:02;;;;;;;5.95;2.95;;;;;;;;;;5031332;28;20030;-39
2023/02/06 08:07:27;;;;;;;6.20;2.13;;;;;;;;;;5031092;28;20407;-39
2023/02/06 08:09:53;;;;;;;3.35;2.63;;;;;;;;;;5031146;28;20399;-40
2023/02/06 08:12:18;;;;;;;1.98;1.75;;;;;;;;;;5031145;28;20104;-39
2023/02/06 08:14:44;;;;;;;7.25;2.70;;;;;;;;;;5031042;28;20056;-38
2023/02/06 08:17:11;;;;;;;3.50;2.10;;;;;;;;;;5031068;28;20022;-38
2023/02/06 08:19:37;;;;;;;3.40;2.35;;;;;;;;;;5030721;28;20119;-38
2023/02/06 08:22:02;;;;;;;2.85;2.03;;;;;;;;;;5031232;28;20472;-38
2023/02/06 08:24:28;;;;;;;6.95;2.95;;;;;;;;;;5031128;28;20034;-39
2023/02/06 08:26:53;;;;;;;2.13;1.92;;;;;;;;;;5031137;28;20013;-38
2023/02/06 08:29:18;;;;;;;3.80;2.03;;;;;;;;;;5029901;28;20029;-39
2023/02/06 08:31:44;;;;;;;8.38;1.95;;;;;;;;;;5030810;28;20520;-38
2023/02/06 08:34:11;;;;;;;6.03;2.92;;;;;;;;;;5030814;28;20030;-38
2023/02/06 08:36:36;;;;;;;6.35;3.28;;;;;;;;;;5030907;28;20018;-38
2023/02/06 08:39:02;;;;;;;5.50;3.03;;;;;;;;;;5030793;28;20171;-39
2023/02/06 08:41:29;;;;;;;2.33;1.95;;;;;;;;;;5030688;28;20026;-39
2023/02/06 08:43:59;;;;;;;4.72;2.40;;;;;;;;;;5031026;28;20037;-39
2023/02/06 08:46:27;;;;;;;6.35;2.00;;;;;;;;;;5032121;28;20033;-39
2023/02/06 08:48:59;;;;;;;5.63;3.00;;;;;;;;;;5034305;28;20033;-39
2023/02/06 08:51:28;;;;;;;3.70;2.42;;;;;;;;;;5034112;28;20384;-39
2023/02/06 08:53:57;;;;;;;11.70;3.05;;;;;;;;;;5034164;28;20033;-39
2023/02/06 08:56:22;;;;;;;9.18;2.95;;;;;;;;;;5034344;28;20053;-39
2023/02/06 08:58:48;;;;;;;4.55;2.25;;;;;;;;;;5034115;28;20029;-40
2023/02/06 09:01:15;;;;;;;1.25;0.68;;;;;;;;;;5033825;28;20484;-38
2023/02/06 09:03:41;;;;;;;3.13;2.17;;;;;;;;;;5034053;28;20044;-39
2023/02/06 09:06:07;;;;;;;2.85;1.88;;;;;;;;;;5034209;28;20033;-39
2023/02/06 09:08:32;;;;;;;2.50;2.00;;;;;;;;;;5033823;28;20021;-39
2023/02/06 09:11:08;;;;;;;2.85;2.10;;;;;;;;;;5033884;28;20097;-39
2023/02/06 09:13:34;;;;;;;3.60;2.13;;;;;;;;;;5033771;28;20547;-39
2023/02/06 09:15:59;;;;;;;4.75;3.03;;;;;;;;;;5033735;28;20108;-39
2023/02/06 09:18:25;;;;;;;5.25;2.55;;;;;;;;;;5033663;28;20077;-39
2023/02/06 09:20:51;;;;;;;3.00;2.72;;;;;;;;;;5033593;28;20385;-39
2023/02/06 09:23:17;;;;;;;4.75;2.38;;;;;;;;;;5033501;28;20034;-39
2023/02/06 09:25:43;;;;;;;5.68;2.35;;;;;;;;;;5033836;28;20028;-39
2023/02/06 09:28:09;;;;;;;4.95;2.35;;;;;;;;;;5033895;28;20026;-39
2023/02/06 09:30:34;;;;;;;3.08;2.33;;;;;;;;;;5033402;28;20384;-39
2023/02/06 09:33:00;;;;;;;4.97;1.98;;;;;;;;;;5033748;28;20387;-39
2023/02/06 09:35:25;;;;;;;4.43;2.50;;;;;;;;;;5033395;28;20061;-39
2023/02/06 09:37:50;;;;;;;3.03;2.45;;;;;;;;;;5032074;28;20053;-39
2023/02/06 09:40:18;;;;;;;2.60;2.03;;;;;;;;;;5033766;28;20025;-39
2023/02/06 09:42:44;;;;;;;3.78;1.95;;;;;;;;;;5033574;28;20120;-38
2023/02/06 09:45:18;;;;;;;5.90;2.67;;;;;;;;;;5033157;28;20100;-39
2023/02/06 09:47:49;;;;;;;5.32;2.28;;;;;;;;;;5033184;28;20399;-39
2023/02/06 09:50:26;;;;;;;1.83;1.33;;;;;;;;;;5033014;28;20037;-39
2023/02/06 09:52:58;;;;;;;6.70;3.13;;;;;;;;;;5033372;28;20413;-39
2023/02/06 09:55:23;;;;;;;2.75;1.67;;;;;;;;;;5033022;28;20111;-39
2023/02/06 09:57:51;;;;;;;7.35;2.65;;;;;;;;;;5032384;28;20045;-39
2023/02/06 10:00:23;;;;;;;1.70;1.33;;;;;;;;;;5032730;28;20480;-39
2023/02/06 10:03:02;;;;;;;3.53;1.85;;;;;;;;;;5033211;28;20025;-39
2023/02/06 10:05:27;;;;;;;7.35;3.47;;;;;;;;;;5032715;28;20034;-39
2023/02/06 10:07:59;;;;;;;5.93;3.22;;;;;;;;;;5032855;28;20032;-39
2023/02/06 10:10:31;;;;;;;6.72;2.72;;;;;;;;;;5032552;28;20109;-39
2023/02/06 10:13:15;;;;;;;1.92;1.65;;;;;;;;;;5032747;28;20045;-39
2023/02/06 10:15:45;;;;;;;3.58;1.98;;;;;;;;;;5032609;28;20049;-38
2023/02/06 10:18:13;;;;;;;4.03;2.35;;;;;;;;;;5032512;28;20053;-39
2023/02/06 10:20:54;;;;;;;6.28;2.63;;;;;;;;;;5032363;28;20029;-38
2023/02/06 10:23:29;;;;;;;3.05;2.05;;;;;;;;;;5031188;28;20052;-39
2023/02/06 10:26:22;;;;;;;4.32;2.53;;;;;;;;;;5032399;28;20046;-43
2023/02/06 10:28:49;;;;;;;3.47;2.50;;;;;;;;;;5032770;28;20032;-39
2023/02/06 10:31:23;;;;;;;2.85;1.98;;;;;;;;;;5032240;28;20057;-39
2023/02/06 10:33:58;;;;;;;3.92;2.47;;;;;;;;;;5032282;28;20036;-39
2023/02/06 10:36:56;;;;;;;6.22;1.98;;;;;;;;;;5032214;28;20041;-39
2023/02/06 10:39:37;;;;;;;1.60;1.48;;;;;;;;;;4998731;28;20447;-39
2023/02/06 10:42:14;;;;;;;6.93;2.85;;;;;;;;;;5032051;28;20038;-39
2023/02/06 10:44:40;;;;;;;6.10;3.13;;;;;;;;;;5032133;28;20112;-39
2023/02/06 10:47:14;;;;;;;2.13;1.65;;;;;;;;;;5032000;28;20148;-39
2023/02/06 10:49:45;;;;;;;3.22;1.85;;;;;;;;;;5032249;28;20388;-39
2023/02/06 10:52:26;;;;;;;7.22;2.60;;;;;;;;;;5032206;28;20376;-39
2023/02/06 10:54:56;;;;;;;4.50;2.33;;;;;;;;;;5031941;28;20021;-39
2023/02/06 10:57:33;;;;;;;4.53;2.50;;;;;;;;;;5032142;28;20044;-39
2023/02/06 11:00:00;;;;;;;7.18;2.45;;;;;;;;;;5031652;28;20037;-39
2023/02/06 11:02:27;;;;;;;4.13;2.22;;;;;;;;;;5031973;28;20033;-39
2023/02/06 11:05:11;;;;;;;2.00;1.80;;;;;;;;;;5030658;28;20028;-39
2023/02/06 11:07:40;;;;;;;3.55;2.33;;;;;;;;;;5031717;28;20032;-39
2023/02/06 11:10:06;;;;;;;3.80;1.98;;;;;;;;;;5030963;28;20059;-39
2023/02/06 11:12:31;;;;;;;12.90;7.40;;;;;;;;;;5031496;28;20029;-38
2023/02/06 11:14:59;;;;;;;4.10;2.20;;;;;;;;;;5031586;28;20464;-39
2023/02/06 11:17:27;;;;;;;4.85;2.95;;;;;;;;;;5031368;28;20034;-40
2023/02/06 11:19:57;;;;;;;5.45;3.13;;;;;;;;;;5031488;28;20506;-39
2023/02/06 11:22:27;;;;;;;4.10;2.35;;;;;;;;;;5031505;28;20036;-39
2023/02/06 11:25:16;;;;;;;10.00;2.10;;;;;;;;;;5031791;28;20060;-39
2023/02/06 11:27:42;;;;;;;2.13;1.98;;;;;;;;;;5031873;28;20115;-39
2023/02/06 11:30:20;;;;;;;4.43;2.88;;;;;;;;;;5031764;28;20475;-39
2023/02/06 11:32:45;;;;;;;4.57;2.55;;;;;;;;;;5031421;28;20026;-39
2023/02/06 11:35:19;;;;;;;5.38;2.88;;;;;;;;;;5031441;28;20024;-40
2023/02/06 11:37:48;;;;;;;4.47;2.15;;;;;;;;;;5031315;28;20029;-39
2023/02/06 11:40:17;;;;;;;4.22;2.70;;;;;;;;;;5031291;28;20075;-40
2023/02/06 11:42:43;;;;;;;4.00;2.33;;;;;;;;;;5031333;28;20029;-39
2023/02/06 11:45:29;;;;;;;4.63;3.42;;;;;;;;;;5031238;28;20771;-39
2023/02/06 11:47:55;;;;;;;5.78;2.75;;;;;;;;;;5031541;28;20026;-39
2023/02/06 11:50:34;;;;;;;5.00;1.95;;;;;;;;;;5031138;28;20040;-40
2023/02/06 11:53:08;;;;;;;3.38;2.55;;;;;;;;;;5031210;28;20030;-39
2023/02/06 11:55:34;;;;;;;6.40;2.78;;;;;;;;;;5031165;28;20640;-39
2023/02/06 11:58:18;;;;;;;4.63;1.77;;;;;;;;;;5063172;28;20061;-40
2023/02/06 12:00:53;;;;;;;4.40;2.78;;;;;;;;;;5031089;28;20132;-39
2023/02/06 12:03:42;;;;;;;8.90;2.45;;;;;;;;;;5031149;28;20033;-39
2023/02/06 12:06:07;;;;;;;4.82;2.00;;;;;;;;;;5022954;28;20045;-39
2023/02/06 12:08:38;;;;;;;3.47;1.40;;;;;;;;;;5029840;28;20471;-39
2023/02/06 12:11:08;;;;;;;3.58;2.17;;;;;;;;;;5031006;28;20076;-39
2023/02/06 12:13:40;;;;;;;4.05;1.98;;;;;;;;;;5030037;28;20168;-39
2023/02/06 12:16:06;;;;;;;4.60;2.57;;;;;;;;;;5031133;28;20029;-39
2023/02/06 12:18:37;;;;;;;2.70;1.90;;;;;;;;;;5030733;28;20282;-39
2023/02/06 12:21:05;;;;;;;6.00;1.52;;;;;;;;;;5031822;28;20369;-39
2023/02/06 12:23:30;;;;;;;4.60;2.40;;;;;;;;;;5034662;28;20029;-39
2023/02/06 12:25:58;;;;;;;1.70;1.60;;;;;;;;;;5033443;28;20034;-39
2023/02/06 12:28:27;;;;;;;4.20;2.10;;;;;;;;;;5034863;28;20223;-39
2023/02/06 12:30:57;;;;;;;3.30;1.85;;;;;;;;;;5034639;28;20029;-40
2023/02/06 12:33:32;;;;;;;6.10;1.75;;;;;;;;;;5034782;28;20032;-39
2023/02/06 12:36:10;;;;;;;2.95;1.60;;;;;;;;;;5034502;28;20021;-39
2023/02/06 12:38:45;;;;;;;1.45;1.35;;;;;;;;;;5034764;28;20033;-39
2023/02/06 12:41:14;;;;;;;5.50;1.90;;;;;;;;;;5034243;28;20480;-40
2023/02/06 12:43:42;;;;;;;4.72;2.08;;;;;;;;;;5034581;28;20029;-39
2023/02/06 12:46:21;;;;;;;6.72;2.67;;;;;;;;;;5034589;28;20407;-39
2023/02/06 12:49:02;;;;;;;3.40;1.52;;;;;;;;;;5032972;28;20034;-39
2023/02/06 12:51:35;;;;;;;6.53;2.38;;;;;;;;;;5034118;28;20029;-39
2023/02/06 12:54:13;;;;;;;3.47;2.13;;;;;;;;;;5034508;28;20040;-39
2023/02/06 12:56:38;;;;;;;4.07;1.30;;;;;;;;;;5034086;28;20029;-39
2023/02/06 12:59:19;;;;;;;5.00;2.13;;;;;;;;;;5034143;28;20379;-39
2023/02/06 13:02:04;;;;;;;4.70;2.65;;;;;;;;;;5034348;28;20045;-39
2023/02/06 13:04:31;;;;;;;2.28;1.75;;;;;;;;;;5034154;28;20032;-39
2023/02/06 13:07:01;;;;;;;3.38;2.08;;;;;;;;;;5034283;28;20048;-39
2023/02/06 13:09:31;;;;;;;2.03;1.27;;;;;;;;;;5033797;28;20071;-39
2023/02/06 13:12:10;;;;;;;2.65;1.70;;;;;;;;;;5033905;28;20029;-39
2023/02/06 13:14:36;;;;;;;2.25;1.73;;;;;;;;;;5033825;28;20744;-39
2023/02/06 13:17:10;;;;;;;4.57;2.05;;;;;;;;;;5034053;28;20052;-39
2023/02/06 13:19:35;;;;;;;2.80;2.10;;;;;;;;;;5033527;28;20140;-39
2023/02/06 13:22:07;;;;;;;7.82;2.35;;;;;;;;;;5034040;28;20736;-39
2023/02/06 13:24:32;;;;;;;3.03;2.17;;;;;;;;;;5033530;28;20030;-40
2023/02/06 13:27:03;;;;;;;1.42;1.33;;;;;;;;;;5033526;28;20064;-40
2023/02/06 13:29:32;;;;;;;2.53;1.52;;;;;;;;;;5033859;28;20091;-39
2023/02/06 13:32:21;;;;;;;2.78;2.30;;;;;;;;;;5033316;28;20439;-39
2023/02/06 13:34:52;;;;;;;3.38;2.33;;;;;;;;;;5033719;28;20045;-39
2023/02/06 13:37:17;;;;;;;2.47;1.70;;;;;;;;;;5033292;28;20043;-40
2023/02/06 13:39:45;;;;;;;1.80;1.38;;;;;;;;;;5033203;28;20029;-39
2023/02/06 13:42:43;;;;;;;7.75;2.03;;;;;;;;;;5033257;28;20048;-39
2023/02/06 13:45:16;;;;;;;3.50;1.83;;;;;;;;;;4999721;28;20038;-40
2023/02/06 13:47:44;;;;;;;2.00;1.58;;;;;;;;;;5033497;28;20029;-39
2023/02/06 13:50:18;;;;;;;1.52;1.42;;;;;;;;;;5033397;28;20083;-39
2023/02/06 13:52:50;;;;;;;2.17;1.42;;;;;;;;;;5033028;28;20506;-39
2023/02/06 13:55:24;;;;;;;2.00;1.50;;;;;;;;;;5033030;28;20108;-40
2023/02/06 13:57:50;;;;;;;2.80;1.90;;;;;;;;;;5033041;28;20037;-39
2023/02/06 14:00:27;;;;;;;4.03;2.50;;;;;;;;;;5032865;28;20025;-39
2023/02/06 14:02:55;;;;;;;3.80;2.15;;;;;;;;;;5032990;28;20025;-39
2023/02/06 14:05:46;;;;;;;1.67;1.58;;;;;;;;;;5032746;28;20017;-39
2023/02/06 14:08:30;;;;;;;1.65;1.10;;;;;;;;;;5028704;28;20045;-39
2023/02/06 14:10:58;;;;;;;3.13;1.73;;;;;;;;;;5032728;28;20051;-39
2023/02/06 14:13:27;;;;;;;2.25;1.80;;;;;;;;;;5032698;28;20021;-39
2023/02/06 14:16:15;;;;;;;1.60;1.10;;;;;;;;;;5032669;28;20464;-39
2023/02/06 14:19:01;;;;;;;3.10;2.05;;;;;;;;;;5032265;28;20054;-39
2023/02/06 14:21:39;;;;;;;2.65;1.48;;;;;;;;;;5031912;28;20050;-39
2023/02/06 14:24:07;;;;;;;1.60;1.50;;;;;;;;;;5032753;28;20422;-39
2023/02/06 14:26:32;;;;;;;1.55;1.45;;;;;;;;;;5032417;28;20025;-39
2023/02/06 14:28:58;;;;;;;2.13;1.83;;;;;;;;;;5032677;28;20037;-39
2023/02/06 14:31:50;;;;;;;2.00;1.23;;;;;;;;;;5032531;28;20468;-40
2023/02/06 14:34:28;;;;;;;4.32;1.65;;;;;;;;;;5028146;28;20073;-39
2023/02/06 14:36:59;;;;;;;3.03;1.67;;;;;;;;;;5032250;28;20369;-39
2023/02/06 14:39:44;;;;;;;2.03;1.77;;;;;;;;;;5032118;28;20563;-39
2023/02/06 14:42:15;;;;;;;1.25;1.00;;;;;;;;;;5032146;28;20033;-39
2023/02/06 14:44:43;;;;;;;1.25;0.90;;;;;;;;;;5031925;28;20583;-41
2023/02/06 14:47:19;;;;;;;3.15;1.25;;;;;;;;;;5032174;28;20098;-39
2023/02/06 14:49:45;;;;;;;3.53;1.77;;;;;;;;;;5032270;28;20033;-39
2023/02/06 14:52:22;;;;;;;2.17;1.75;;;;;;;;;;5031996;28;20032;-39